createdAt,value
2022-12-03T00:00:46.657Z,0.48
2022-12-03T00:03:13.238Z,0.50
2022-12-03T00:05:48.329Z,0.51
2022-12-03T00:08:15.455Z,0.52
2022-12-03T00:10:41.930Z,0.54
2022-12-03T00:13:08.310Z,0.55
2022-12-03T00:15:34.808Z,0.55
2022-12-03T00:18:01.255Z,0.55
2022-12-03T00:20:27.684Z,0.54
2022-12-03T00:22:54.141Z,0.50
2022-12-03T00:25:20.586Z,0.47
2022-12-03T00:27:47.000Z,0.46
2022-12-03T00:30:14.661Z,0.45
2022-12-03T00:32:41.119Z,0.44
2022-12-03T00:35:07.847Z,0.43
2022-12-03T00:37:35.276Z,0.42
2022-12-03T00:40:03.248Z,0.41
2022-12-03T00:42:29.706Z,0.38
2022-12-03T00:44:56.189Z,0.38
2022-12-03T00:47:22.646Z,0.38
2022-12-03T00:49:49.066Z,0.38
2022-12-03T00:52:15.553Z,0.36
2022-12-03T00:54:41.948Z,0.35
2022-12-03T00:57:08.421Z,0.32
2022-12-03T00:59:34.953Z,0.32
2022-12-03T01:02:01.410Z,0.31
2022-12-03T01:04:27.881Z,0.28
2022-12-03T01:06:54.346Z,0.27
2022-12-03T01:09:20.870Z,0.26
2022-12-03T01:11:47.418Z,0.27
2022-12-03T01:14:17.655Z,0.28
2022-12-03T01:16:44.603Z,0.28
2022-12-03T01:19:15.697Z,0.26
2022-12-03T01:21:43.920Z,0.22
2022-12-03T01:24:10.472Z,0.20
2022-12-03T01:26:37.302Z,0.18
2022-12-03T01:29:04.360Z,0.19
2022-12-03T01:31:49.445Z,0.21
2022-12-03T01:34:16.355Z,0.20
2022-12-03T01:36:45.793Z,0.20
2022-12-03T01:39:12.298Z,0.20
2022-12-03T01:41:39.270Z,0.17
2022-12-03T01:44:28.071Z,0.15
2022-12-03T01:46:56.996Z,0.14
2022-12-03T01:49:27.167Z,0.12
2022-12-03T01:51:55.374Z,0.14
2022-12-03T01:54:31.127Z,0.16
2022-12-03T01:56:58.190Z,0.14
2022-12-03T01:59:34.225Z,0.13
2022-12-03T02:02:11.517Z,0.12
2022-12-03T02:04:38.079Z,0.11
2022-12-03T02:07:17.892Z,0.12
2022-12-03T02:09:44.442Z,0.14
2022-12-03T02:12:11.275Z,0.14
2022-12-03T02:14:37.781Z,0.15
2022-12-03T02:17:04.262Z,0.14
2022-12-03T02:19:30.705Z,0.12
2022-12-03T02:22:03.273Z,0.09
2022-12-03T02:24:39.225Z,0.11
2022-12-03T02:27:06.410Z,0.13
2022-12-03T02:29:32.871Z,0.16
2022-12-03T02:31:59.356Z,0.15
2022-12-03T02:34:38.344Z,0.15
2022-12-03T02:37:07.306Z,0.14
2022-12-03T02:39:36.714Z,0.12
2022-12-03T02:42:22.980Z,0.09
2022-12-03T02:44:49.496Z,0.04
2022-12-03T02:47:16.038Z,0.00
2022-12-03T02:49:43.095Z,-0.01
2022-12-03T02:52:09.661Z,-0.01
2022-12-03T02:54:36.133Z,-0.02
2022-12-03T02:57:02.586Z,-0.04
2022-12-03T02:59:29.151Z,-0.05
2022-12-03T03:01:56.149Z,-0.05
2022-12-03T03:04:24.855Z,-0.05
2022-12-03T03:06:52.394Z,-0.05
2022-12-03T03:09:20.235Z,-0.06
2022-12-03T03:11:46.643Z,-0.07
2022-12-03T03:14:13.380Z,-0.07
2022-12-03T03:16:40.063Z,-0.07
2022-12-03T03:19:06.606Z,-0.07
2022-12-03T03:21:33.574Z,-0.06
2022-12-03T03:23:59.981Z,-0.06
2022-12-03T03:26:26.489Z,-0.06
2022-12-03T03:28:53.024Z,-0.06
2022-12-03T03:31:23.018Z,-0.07
2022-12-03T03:33:50.057Z,-0.05
2022-12-03T03:36:17.055Z,-0.05
2022-12-03T03:38:43.528Z,-0.03
2022-12-03T03:41:11.358Z,-0.02
2022-12-03T03:43:39.814Z,-0.01
2022-12-03T03:46:07.610Z,-0.03
2022-12-03T03:48:35.305Z,-0.05
2022-12-03T03:51:03.903Z,-0.06
2022-12-03T03:53:30.720Z,-0.08
2022-12-03T03:55:57.220Z,-0.10
2022-12-03T03:58:23.778Z,-0.11
2022-12-03T04:00:50.282Z,-0.12
2022-12-03T04:03:16.689Z,-0.14
2022-12-03T04:05:43.167Z,-0.14
2022-12-03T04:08:09.657Z,-0.15
2022-12-03T04:10:54.938Z,-0.14
2022-12-03T04:13:21.362Z,-0.15
2022-12-03T04:15:47.850Z,-0.15
2022-12-03T04:18:32.796Z,-0.14
2022-12-03T04:21:19.223Z,-0.15
2022-12-03T04:23:45.628Z,-0.14
2022-12-03T04:26:30.802Z,-0.13
2022-12-03T04:28:57.438Z,-0.12
2022-12-03T04:31:42.526Z,-0.13
2022-12-03T04:34:28.338Z,-0.14
2022-12-03T04:36:54.783Z,-0.17
2022-12-03T04:39:21.675Z,-0.22
2022-12-03T04:41:48.081Z,-0.24
2022-12-03T04:44:33.353Z,-0.27
2022-12-03T04:47:00.804Z,-0.31
2022-12-03T04:49:27.205Z,-0.34
2022-12-03T04:51:53.655Z,-0.36
2022-12-03T04:54:20.066Z,-0.38
2022-12-03T04:56:46.517Z,-0.37
2022-12-03T04:59:16.308Z,-0.38
2022-12-03T05:01:44.068Z,-0.39
2022-12-03T05:04:11.315Z,-0.41
2022-12-03T05:06:37.852Z,-0.46
2022-12-03T05:09:04.589Z,-0.47
2022-12-03T05:11:31.714Z,-0.46
2022-12-03T05:13:58.308Z,-0.44
2022-12-03T05:16:24.835Z,-0.39
2022-12-03T05:18:51.324Z,-0.38
2022-12-03T05:21:17.717Z,-0.39
2022-12-03T05:23:44.089Z,-0.39
2022-12-03T05:26:10.958Z,-0.43
2022-12-03T05:28:37.319Z,-0.45
2022-12-03T05:31:05.159Z,-0.46
2022-12-03T05:33:32.075Z,-0.46
2022-12-03T05:35:58.674Z,-0.46
2022-12-03T05:38:25.144Z,-0.47
2022-12-03T05:40:51.539Z,-0.47
2022-12-03T05:43:17.920Z,-0.48
2022-12-03T05:45:45.122Z,-0.47
2022-12-03T05:48:13.898Z,-0.43
2022-12-03T05:50:43.151Z,-0.43
2022-12-03T05:53:10.024Z,-0.47
2022-12-03T05:55:36.974Z,-0.50
2022-12-03T05:58:03.635Z,-0.48
2022-12-03T06:00:32.352Z,-0.48
2022-12-03T06:02:59.479Z,-0.48
2022-12-03T06:05:26.139Z,-0.47
2022-12-03T06:07:53.126Z,-0.46
2022-12-03T06:10:23.617Z,-0.45
2022-12-03T06:12:50.985Z,-0.46
2022-12-03T06:15:18.462Z,-0.46
2022-12-03T06:17:44.968Z,-0.46
2022-12-03T06:20:18.061Z,-0.47
2022-12-03T06:22:44.866Z,-0.48
2022-12-03T06:25:12.038Z,-0.47
2022-12-03T06:27:38.541Z,-0.47
2022-12-03T06:30:06.420Z,-0.47
2022-12-03T06:32:32.868Z,-0.47
2022-12-03T06:34:59.314Z,-0.51
2022-12-03T06:37:25.711Z,-0.54
2022-12-03T06:39:52.159Z,-0.56
2022-12-03T06:42:18.633Z,-0.57
2022-12-03T06:44:45.049Z,-0.58
2022-12-03T06:47:11.458Z,-0.57
2022-12-03T06:49:37.879Z,-0.57
2022-12-03T06:52:04.409Z,-0.58
2022-12-03T06:54:30.920Z,-0.60
2022-12-03T06:56:57.319Z,-0.60
2022-12-03T06:59:23.685Z,-0.60
2022-12-03T07:01:50.233Z,-0.59
2022-12-03T07:04:16.661Z,-0.60
2022-12-03T07:06:43.707Z,-0.60
2022-12-03T07:09:10.205Z,-0.61
2022-12-03T07:11:42.313Z,-0.60
2022-12-03T07:14:11.141Z,-0.61
2022-12-03T07:16:38.774Z,-0.60
2022-12-03T07:19:06.972Z,-0.59
2022-12-03T07:21:34.045Z,-0.60
2022-12-03T07:24:01.079Z,-0.61
2022-12-03T07:26:27.560Z,-0.65
2022-12-03T07:28:53.990Z,-0.66
2022-12-03T07:31:20.469Z,-0.69
2022-12-03T07:33:47.354Z,-0.73
2022-12-03T07:36:13.897Z,-0.72
2022-12-03T07:38:40.321Z,-0.71
2022-12-03T07:41:07.051Z,-0.69
2022-12-03T07:43:33.511Z,-0.67
2022-12-03T07:45:59.863Z,-0.66
2022-12-03T07:48:26.301Z,-0.65
2022-12-03T07:50:52.741Z,-0.65
2022-12-03T07:53:19.162Z,-0.66
2022-12-03T07:55:45.694Z,-0.67
2022-12-03T07:58:12.101Z,-0.65
2022-12-03T08:00:38.700Z,-0.66
2022-12-03T08:03:05.104Z,-0.68
2022-12-03T08:05:31.563Z,-0.70
2022-12-03T08:07:58.119Z,-0.70
2022-12-03T08:10:25.570Z,-0.69
2022-12-03T08:12:53.682Z,-0.68
2022-12-03T08:15:26.737Z,-0.67
2022-12-03T08:17:58.822Z,-0.66
2022-12-03T08:20:33.128Z,-0.67
2022-12-03T08:23:00.004Z,-0.68
2022-12-03T08:25:30.073Z,-0.69
2022-12-03T08:28:24.233Z,-0.70
2022-12-03T08:31:12.887Z,-0.72
2022-12-03T08:33:40.536Z,-0.69
2022-12-03T08:36:17.033Z,-0.69
2022-12-03T08:38:51.720Z,-0.66
2022-12-03T08:41:39.541Z,-0.63
2022-12-03T08:44:21.771Z,-0.59
2022-12-03T08:47:05.841Z,-0.56
2022-12-03T08:49:36.274Z,-0.54
2022-12-03T08:52:13.478Z,-0.52
2022-12-03T08:54:46.482Z,-0.50
2022-12-03T08:57:36.212Z,-0.50
2022-12-03T09:00:20.971Z,-0.51
2022-12-03T09:03:12.285Z,-0.50
2022-12-03T09:05:42.840Z,-0.52
2022-12-03T09:08:16.185Z,-0.54
2022-12-03T09:10:45.613Z,-0.58
2022-12-03T09:13:18.880Z,-0.58
2022-12-03T09:15:49.835Z,-0.58
2022-12-03T09:18:16.239Z,-0.58
2022-12-03T09:20:42.683Z,-0.58
2022-12-03T09:23:09.060Z,-0.56
2022-12-03T09:25:35.662Z,-0.56
2022-12-03T09:28:02.087Z,-0.57
2022-12-03T09:30:28.621Z,-0.55
2022-12-03T09:32:55.054Z,-0.56
2022-12-03T09:35:21.417Z,-0.55
2022-12-03T09:37:47.785Z,-0.54
2022-12-03T09:40:15.039Z,-0.56
2022-12-03T09:42:41.570Z,-0.56
2022-12-03T09:45:12.169Z,-0.54
2022-12-03T09:47:45.151Z,-0.52
2022-12-03T09:50:16.111Z,-0.49
2022-12-03T09:52:42.610Z,-0.47
2022-12-03T09:55:19.379Z,-0.44
2022-12-03T09:57:45.772Z,-0.39
2022-12-03T10:00:26.968Z,-0.35
2022-12-03T10:02:56.569Z,-0.31
2022-12-03T10:05:23.835Z,-0.28
2022-12-03T10:07:52.227Z,-0.27
2022-12-03T10:10:22.362Z,-0.28
2022-12-03T10:12:52.616Z,-0.28
2022-12-03T10:15:21.971Z,-0.27
2022-12-03T10:17:51.006Z,-0.27
2022-12-03T10:20:21.270Z,-0.25
2022-12-03T10:22:48.761Z,-0.22
2022-12-03T10:25:21.121Z,-0.18
2022-12-03T10:27:56.749Z,-0.15
2022-12-03T10:30:26.854Z,-0.11
2022-12-03T10:32:53.305Z,-0.08
2022-12-03T10:35:22.984Z,-0.06
2022-12-03T10:38:04.979Z,-0.03
2022-12-03T10:40:40.541Z,0.01
2022-12-03T10:43:22.406Z,0.04
2022-12-03T10:46:04.144Z,0.07
2022-12-03T10:48:31.316Z,0.09
2022-12-03T10:51:07.150Z,0.11
2022-12-03T10:53:36.442Z,0.15
2022-12-03T10:56:08.449Z,0.20
2022-12-03T10:58:37.221Z,0.27
2022-12-03T11:01:13.988Z,0.30
2022-12-03T11:03:40.525Z,0.33
2022-12-03T11:06:09.421Z,0.34
2022-12-03T11:08:37.078Z,0.34
2022-12-03T11:11:05.753Z,0.35
2022-12-03T11:13:32.122Z,0.37
2022-12-03T11:16:03.537Z,0.42
2022-12-03T11:18:36.010Z,0.47
2022-12-03T11:21:06.051Z,0.46
2022-12-03T11:23:44.825Z,0.47
2022-12-03T11:26:18.863Z,0.51
2022-12-03T11:28:46.020Z,0.54
2022-12-03T11:31:34.180Z,0.56
2022-12-03T11:34:22.517Z,0.60
2022-12-03T11:37:11.072Z,0.61
2022-12-03T11:39:49.789Z,0.62
2022-12-03T11:42:28.499Z,0.62
2022-12-03T11:45:04.082Z,0.63
2022-12-03T11:47:43.451Z,0.62
2022-12-03T11:50:28.925Z,0.57
2022-12-03T11:53:00.514Z,0.59
2022-12-03T11:55:40.324Z,0.61
2022-12-03T12:01:47.697Z,0.69
2022-12-03T12:04:46.482Z,0.73
2022-12-03T12:07:42.628Z,0.77
2022-12-03T12:10:09.569Z,0.77
2022-12-03T12:12:51.129Z,0.78
2022-12-03T12:15:39.338Z,0.80
2022-12-03T12:18:36.820Z,0.84
2022-12-03T12:21:41.401Z,0.88
2022-12-03T12:24:32.981Z,0.90
2022-12-03T12:27:02.806Z,0.91
2022-12-03T12:29:29.180Z,0.93
2022-12-03T12:32:12.819Z,0.93
2022-12-03T12:34:41.360Z,0.89
2022-12-03T12:37:14.204Z,0.82
2022-12-03T12:39:40.787Z,0.74
2022-12-03T12:42:30.424Z,0.68
2022-12-03T12:45:08.872Z,0.62
2022-12-03T12:47:36.279Z,0.56
2022-12-03T12:50:10.623Z,0.52
2022-12-03T12:52:48.352Z,0.50
2022-12-03T12:55:16.537Z,0.47
2022-12-03T12:57:43.815Z,0.43
2022-12-03T13:00:28.549Z,0.39
2022-12-03T13:02:59.864Z,0.35
2022-12-03T13:05:32.056Z,0.33
2022-12-03T13:07:58.571Z,0.31
2022-12-03T13:10:34.173Z,0.31
2022-12-03T13:13:29.633Z,0.30
2022-12-03T13:15:56.035Z,0.28
2022-12-03T13:18:39.646Z,0.24
2022-12-03T13:21:23.645Z,0.23
2022-12-03T13:23:55.573Z,0.24
2022-12-03T13:26:38.362Z,0.24
2022-12-03T13:29:16.452Z,0.22
2022-12-03T13:31:51.884Z,0.19
2022-12-03T13:34:21.988Z,0.17
2022-12-03T13:36:55.288Z,0.14
2022-12-03T13:39:27.048Z,0.14
2022-12-03T13:42:12.474Z,0.14
2022-12-03T13:44:47.065Z,0.12
2022-12-03T13:47:18.513Z,0.10
2022-12-03T13:49:54.469Z,0.08
2022-12-03T13:52:25.013Z,0.04
2022-12-03T13:54:54.785Z,0.02
2022-12-03T13:57:22.041Z,0.03
2022-12-03T13:59:48.552Z,0.03
2022-12-03T14:02:14.977Z,0.04
2022-12-03T14:04:41.765Z,0.07
2022-12-03T14:07:08.155Z,0.08
2022-12-03T14:09:34.539Z,0.06
2022-12-03T14:12:19.767Z,0.05
2022-12-03T14:14:46.156Z,0.03
2022-12-03T14:17:12.577Z,0.02
2022-12-03T14:19:38.981Z,0.01
2022-12-03T14:22:07.911Z,0.01
2022-12-03T14:24:34.317Z,-0.00
2022-12-03T14:27:00.754Z,-0.03
2022-12-03T14:29:27.134Z,-0.04
2022-12-03T14:31:53.736Z,-0.04
2022-12-03T14:34:20.354Z,-0.06
2022-12-03T14:36:46.745Z,-0.09
2022-12-03T14:39:13.121Z,-0.09
2022-12-03T14:41:58.316Z,-0.11
2022-12-03T14:44:25.266Z,-0.09
2022-12-03T14:46:56.824Z,-0.07
2022-12-03T14:49:23.899Z,-0.04
2022-12-03T14:51:50.355Z,-0.02
2022-12-03T14:54:16.787Z,-0.00
2022-12-03T14:56:43.182Z,-0.01
2022-12-03T14:59:09.546Z,-0.02
2022-12-03T15:01:36.064Z,-0.02
2022-12-03T15:04:02.598Z,-0.03
2022-12-03T15:06:29.045Z,-0.06
2022-12-03T15:08:55.485Z,-0.07
2022-12-03T15:11:21.884Z,-0.08
2022-12-03T15:13:48.686Z,-0.11
2022-12-03T15:16:15.110Z,-0.13
2022-12-03T15:18:41.589Z,-0.16
2022-12-03T15:21:08.025Z,-0.17
2022-12-03T15:23:34.440Z,-0.18
2022-12-03T15:26:00.858Z,-0.20
2022-12-03T15:28:27.680Z,-0.21
2022-12-03T15:30:54.189Z,-0.19
2022-12-03T15:33:20.619Z,-0.19
2022-12-03T15:35:47.276Z,-0.22
2022-12-03T15:38:13.812Z,-0.24
2022-12-03T15:40:40.482Z,-0.25
2022-12-03T15:43:08.618Z,-0.23
2022-12-03T15:45:35.705Z,-0.21
2022-12-03T15:48:02.204Z,-0.22
2022-12-03T15:50:28.984Z,-0.23
2022-12-03T15:52:55.688Z,-0.24
2022-12-03T15:55:22.292Z,-0.25
2022-12-03T15:57:49.261Z,-0.24
2022-12-03T16:00:16.293Z,-0.25
2022-12-03T16:02:47.523Z,-0.27
2022-12-03T16:05:17.865Z,-0.28
2022-12-03T16:07:44.304Z,-0.29
2022-12-03T16:10:11.558Z,-0.28
2022-12-03T16:12:37.979Z,-0.30
2022-12-03T16:15:04.907Z,-0.32
2022-12-03T16:17:31.326Z,-0.32
2022-12-03T16:19:57.720Z,-0.31
2022-12-03T16:22:24.179Z,-0.33
2022-12-03T16:24:50.608Z,-0.32
2022-12-03T16:27:19.570Z,-0.33
2022-12-03T16:29:48.119Z,-0.37
2022-12-03T16:32:14.533Z,-0.40
2022-12-03T16:34:41.048Z,-0.44
2022-12-03T16:37:08.299Z,-0.45
2022-12-03T16:39:34.732Z,-0.47
2022-12-03T16:42:01.167Z,-0.48
2022-12-03T16:44:32.566Z,-0.45
2022-12-03T16:47:01.487Z,-0.41
2022-12-03T16:49:28.333Z,-0.38
2022-12-03T16:51:54.744Z,-0.35
2022-12-03T16:54:21.583Z,-0.34
2022-12-03T16:56:48.072Z,-0.37
2022-12-03T16:59:14.559Z,-0.39
2022-12-03T17:01:41.073Z,-0.42
2022-12-03T17:04:07.577Z,-0.42
2022-12-03T17:06:33.972Z,-0.41
2022-12-03T17:09:00.421Z,-0.39
2022-12-03T17:11:26.835Z,-0.42
2022-12-03T17:13:53.240Z,-0.44
2022-12-03T17:16:19.718Z,-0.45
2022-12-03T17:18:46.133Z,-0.44
2022-12-03T17:21:12.550Z,-0.44
2022-12-03T17:23:38.962Z,-0.43
2022-12-03T17:26:05.386Z,-0.44
2022-12-03T17:28:31.823Z,-0.45
2022-12-03T17:30:58.382Z,-0.46
2022-12-03T17:33:24.851Z,-0.46
2022-12-03T17:35:51.234Z,-0.47
2022-12-03T17:38:17.635Z,-0.47
2022-12-03T17:40:43.977Z,-0.47
2022-12-03T17:43:10.375Z,-0.50
2022-12-03T17:45:36.835Z,-0.52
2022-12-03T17:48:03.398Z,-0.52
2022-12-03T17:50:29.808Z,-0.51
2022-12-03T17:52:56.194Z,-0.53
2022-12-03T17:55:32.142Z,-0.53
2022-12-03T17:58:03.337Z,-0.52
2022-12-03T18:00:30.170Z,-0.51
2022-12-03T18:02:56.590Z,-0.51
2022-12-03T18:05:23.112Z,-0.49
2022-12-03T18:07:50.772Z,-0.48
2022-12-03T18:10:17.809Z,-0.48
2022-12-03T18:12:44.236Z,-0.49
2022-12-03T18:15:10.785Z,-0.47
2022-12-03T18:17:37.277Z,-0.46
2022-12-03T18:20:04.321Z,-0.44
2022-12-03T18:22:31.226Z,-0.43
2022-12-03T18:24:57.842Z,-0.42
2022-12-03T18:27:24.645Z,-0.43
2022-12-03T18:29:51.117Z,-0.43
2022-12-03T18:32:30.478Z,-0.44
2022-12-03T18:34:57.804Z,-0.44
2022-12-03T18:37:29.791Z,-0.43
2022-12-03T18:39:57.587Z,-0.42
2022-12-03T18:42:24.716Z,-0.42
2022-12-03T18:44:54.468Z,-0.43
2022-12-03T18:47:24.260Z,-0.43
2022-12-03T18:49:51.198Z,-0.44
2022-12-03T18:52:21.179Z,-0.47
2022-12-03T18:54:48.101Z,-0.49
2022-12-03T18:57:15.065Z,-0.48
2022-12-03T18:59:41.543Z,-0.48
2022-12-03T19:02:22.097Z,-0.47
2022-12-03T19:05:01.554Z,-0.48
2022-12-03T19:07:28.010Z,-0.51
2022-12-03T19:09:54.779Z,-0.53
2022-12-03T19:12:21.473Z,-0.52
2022-12-03T19:14:47.858Z,-0.50
2022-12-03T19:17:14.317Z,-0.48
2022-12-03T19:19:40.812Z,-0.47
2022-12-03T19:22:07.347Z,-0.46
2022-12-03T19:24:33.921Z,-0.45
2022-12-03T19:27:00.390Z,-0.46
2022-12-03T19:29:27.104Z,-0.46
2022-12-03T19:31:53.767Z,-0.46
2022-12-03T19:34:20.459Z,-0.47
2022-12-03T19:36:47.615Z,-0.49
2022-12-03T19:39:14.362Z,-0.50
2022-12-03T19:41:43.138Z,-0.50
2022-12-03T19:44:14.137Z,-0.47
2022-12-03T19:46:41.636Z,-0.44
2022-12-03T19:49:08.436Z,-0.41
2022-12-03T19:51:35.901Z,-0.41
2022-12-03T19:54:07.081Z,-0.40
2022-12-03T19:56:34.276Z,-0.40
2022-12-03T19:59:01.134Z,-0.41
2022-12-03T20:01:33.447Z,-0.42
2022-12-03T20:04:01.921Z,-0.42
2022-12-03T20:06:31.654Z,-0.40
2022-12-03T20:09:00.224Z,-0.42
2022-12-03T20:11:32.261Z,-0.43
2022-12-03T20:14:01.263Z,-0.41
2022-12-03T20:16:28.870Z,-0.38
2022-12-03T20:18:58.147Z,-0.39
2022-12-03T20:21:24.671Z,-0.40
2022-12-03T20:23:51.122Z,-0.42
2022-12-03T20:26:19.869Z,-0.39
2022-12-03T20:28:48.008Z,-0.39
2022-12-03T20:31:17.484Z,-0.38
2022-12-03T20:33:46.397Z,-0.39
2022-12-03T20:36:14.498Z,-0.40
2022-12-03T20:38:41.025Z,-0.40
2022-12-03T20:41:16.332Z,-0.42
2022-12-03T20:43:42.763Z,-0.44
2022-12-03T20:46:15.226Z,-0.46
2022-12-03T20:48:43.038Z,-0.47
2022-12-03T20:51:12.235Z,-0.46
2022-12-03T20:53:39.132Z,-0.45
2022-12-03T20:56:07.360Z,-0.45
2022-12-03T20:58:35.077Z,-0.46
2022-12-03T21:01:16.152Z,-0.47
2022-12-03T21:03:44.000Z,-0.48
2022-12-03T21:06:10.997Z,-0.48
2022-12-03T21:08:42.484Z,-0.49
2022-12-03T21:11:15.972Z,-0.49
2022-12-03T21:13:43.707Z,-0.51
2022-12-03T21:16:13.475Z,-0.51
2022-12-03T21:18:40.455Z,-0.51
2022-12-03T21:21:07.737Z,-0.50
2022-12-03T21:23:34.779Z,-0.49
2022-12-03T21:26:06.458Z,-0.46
2022-12-03T21:28:33.154Z,-0.45
2022-12-03T21:31:05.192Z,-0.45
2022-12-03T21:33:32.329Z,-0.44
2022-12-03T21:36:00.024Z,-0.45
2022-12-03T21:38:28.375Z,-0.47
2022-12-03T21:40:55.816Z,-0.49
2022-12-03T21:43:22.880Z,-0.48
2022-12-03T21:45:49.564Z,-0.47
2022-12-03T21:48:17.228Z,-0.50
2022-12-03T21:50:44.516Z,-0.51
2022-12-03T21:53:11.305Z,-0.50
2022-12-03T21:55:41.202Z,-0.50
2022-12-03T21:58:08.714Z,-0.51
2022-12-03T22:00:35.900Z,-0.50
2022-12-03T22:03:02.491Z,-0.50
2022-12-03T22:05:28.995Z,-0.50
2022-12-03T22:07:55.445Z,-0.49
2022-12-03T22:10:22.075Z,-0.48
2022-12-03T22:12:48.508Z,-0.47
2022-12-03T22:15:18.858Z,-0.45
2022-12-03T22:17:46.062Z,-0.45
2022-12-03T22:20:12.533Z,-0.45
2022-12-03T22:22:38.973Z,-0.44
2022-12-03T22:25:05.543Z,-0.45
2022-12-03T22:27:31.898Z,-0.47
2022-12-03T22:29:58.329Z,-0.47
2022-12-03T22:32:24.885Z,-0.47
2022-12-03T22:34:51.384Z,-0.45
2022-12-03T22:37:17.807Z,-0.44
2022-12-03T22:39:44.240Z,-0.43
2022-12-03T22:42:10.705Z,-0.43
2022-12-03T22:44:37.099Z,-0.41
2022-12-03T22:47:03.771Z,-0.38
2022-12-03T22:49:30.169Z,-0.37
2022-12-03T22:51:56.605Z,-0.37
2022-12-03T22:54:24.261Z,-0.36
2022-12-03T22:56:50.933Z,-0.35
2022-12-03T22:59:17.418Z,-0.33
2022-12-03T23:01:43.935Z,-0.33
2022-12-03T23:04:11.450Z,-0.32
2022-12-03T23:06:38.726Z,-0.32
2022-12-03T23:09:06.969Z,-0.32
2022-12-03T23:11:33.933Z,-0.32
2022-12-03T23:14:00.411Z,-0.34
2022-12-03T23:16:32.218Z,-0.35
2022-12-03T23:19:00.197Z,-0.35
2022-12-03T23:21:30.138Z,-0.35
2022-12-03T23:23:58.299Z,-0.32
2022-12-03T23:26:24.733Z,-0.30
2022-12-03T23:28:51.251Z,-0.31
2022-12-03T23:31:24.191Z,-0.30
2022-12-03T23:33:51.693Z,-0.33
2022-12-03T23:36:18.676Z,-0.32
2022-12-03T23:38:45.727Z,-0.32
2022-12-03T23:41:15.696Z,-0.33
2022-12-03T23:43:42.809Z,-0.32
2022-12-03T23:46:21.257Z,-0.34
2022-12-03T23:48:47.859Z,-0.37
2022-12-03T23:51:17.001Z,-0.38
2022-12-03T23:53:44.735Z,-0.39
2022-12-03T23:56:14.806Z,-0.39
2022-12-03T23:58:41.733Z,-0.38
